Nisku, Canada
Current Conditions -  °F | °C
As of 10:00 AM on Sunday 23 Nov 2014 (Local Time) from CYEG Reporting Station
Few Clouds Few Clouds  
Wind Chill:   Ceiling: Unl
Heat Index:   Visibility: 15mi
Dew Point:   Wind: 3mph
Humidity: 85%   Direction: 160°SSE
Pressure: 29.76"   Gusts: NA
Location:  53.33°N, 113.53°W
Report Text: CYEG 231700Z 16003KT 15SM FEW250 M13/M15 A2976 RMK CI2 SLP126
Loading
Personal Weather Stations






























Interactive Weather Map New forecast layout! Learn more

10-Day Weather Forecast

Advertisements
Track Severe Weather on mobile